Time;durP1;ratioP1;P1;durP2;ratioP2;P2;SDS_P1;SDS_P2;PMS_P1;PMS_P2;Temp;Humidity;BMP_temperature;BMP_pressure;BME280_temperature;BME280_humidity;BME280_pressure;Samples;Min_cycle;Max_cycle;Signal;HPM_P1;HPM_P2
2022/08/05 00:01:32;;;;;;;3.40;3.30;;;;;;;20.51;100.00;96762.34;4966427;28;20316;-65
2022/08/05 00:04:16;;;;;;;3.87;3.67;;;;;;;20.46;100.00;96768.47;4902137;28;20222;-65
2022/08/05 00:06:47;;;;;;;4.07;3.77;;;;;;;20.49;100.00;96754.50;4966378;28;20513;-68
2022/08/05 00:09:18;;;;;;;4.43;4.13;;;;;;;20.46;100.00;96759.63;4946845;28;20224;-65
2022/08/05 00:11:47;;;;;;;4.23;3.93;;;;;;;20.45;100.00;96761.47;4963955;28;20679;-68
2022/08/05 00:14:26;;;;;;;4.37;4.07;;;;;;;20.49;100.00;96765.28;4964825;28;20412;-65
2022/08/05 00:17:00;;;;;;;4.67;4.30;;;;;;;20.44;100.00;96751.78;4966514;28;20615;-68
2022/08/05 00:19:30;;;;;;;4.60;4.33;;;;;;;20.38;100.00;96755.50;4920995;28;20281;-65
2022/08/05 00:22:02;;;;;;;4.57;4.33;;;;;;;20.45;100.00;96766.03;4967084;28;20371;-67
2022/08/05 00:24:31;;;;;;;4.73;4.23;;;;;;;20.43;100.00;96769.00;4951081;28;20237;-65
2022/08/05 00:27:01;;;;;;;4.93;4.53;;;;;;;20.35;100.00;96758.72;4964834;28;20232;-67
2022/08/05 00:29:37;;;;;;;4.90;4.50;;;;;;;20.29;100.00;96757.06;4969129;28;20241;-65
2022/08/05 00:32:11;;;;;;;4.43;4.20;;;;;;;20.27;100.00;96756.47;4966302;28;20396;-67
2022/08/05 00:34:43;;;;;;;4.53;4.23;;;;;;;20.23;100.00;96750.81;4918002;28;20253;-66
2022/08/05 00:37:36;;;;;;;5.23;4.83;;;;;;;20.27;100.00;96751.94;4911458;28;20249;-67
2022/08/05 00:40:22;;;;;;;4.63;4.30;;;;;;;20.25;100.00;96749.47;4964345;28;20450;-68
2022/08/05 00:42:55;;;;;;;5.00;4.43;;;;;;;20.20;100.00;96749.44;4949755;28;20595;-65
2022/08/05 00:45:27;;;;;;;5.30;4.30;;;;;;;20.32;100.00;96749.28;4962725;28;20701;-67
2022/08/05 00:48:11;;;;;;;4.73;4.33;;;;;;;20.36;100.00;96746.88;4948876;28;20209;-65
2022/08/05 00:50:40;;;;;;;6.00;5.47;;;;;;;20.46;100.00;96743.47;4968376;28;20285;-68
2022/08/05 00:53:16;;;;;;;4.43;4.13;;;;;;;20.30;100.00;96754.09;4916322;28;20434;-68
2022/08/05 00:56:09;;;;;;;4.90;4.43;;;;;;;20.38;100.00;96742.84;4962500;28;20237;-65
2022/08/05 00:58:44;;;;;;;5.13;4.83;;;;;;;20.32;100.00;96743.88;4965832;28;20301;-67
2022/08/05 01:01:15;;;;;;;4.80;4.50;;;;;;;20.25;100.00;96748.69;4962907;28;20611;-68
2022/08/05 01:04:04;;;;;;;4.43;4.10;;;;;;;20.25;100.00;96744.09;4956460;28;20672;-65
2022/08/05 01:06:43;;;;;;;4.53;4.23;;;;;;;20.14;100.00;96739.72;4967344;28;20770;-68
2022/08/05 01:09:18;;;;;;;5.00;4.60;;;;;;;20.01;100.00;96740.16;4917135;28;20312;-67
2022/08/05 01:11:49;;;;;;;4.50;4.20;;;;;;;20.00;100.00;96735.84;4968368;28;20213;-67
2022/08/05 01:14:24;;;;;;;4.90;4.50;;;;;;;19.94;100.00;96735.81;4966820;28;20737;-66
2022/08/05 01:17:03;;;;;;;5.00;4.70;;;;;;;20.02;100.00;96739.88;4965006;28;20276;-64
2022/08/05 01:19:36;;;;;;;5.40;5.00;;;;;;;19.94;100.00;96737.66;4950063;28;20211;-68
2022/08/05 01:22:45;;;;;;;5.10;4.80;;;;;;;19.89;100.00;96741.09;4921282;28;20824;-67
2022/08/05 01:25:41;;;;;;;5.17;4.70;;;;;;;19.73;100.00;96742.84;4963287;28;20249;-68
2022/08/05 01:28:27;;;;;;;5.20;4.80;;;;;;;19.74;100.00;96740.94;4964462;28;20218;-67
2022/08/05 01:31:01;;;;;;;5.97;5.10;;;;;;;19.76;100.00;96742.31;4964074;28;20766;-65
2022/08/05 01:33:33;;;;;;;5.83;5.23;;;;;;;19.81;100.00;96737.00;4967156;28;20215;-65
2022/08/05 01:36:11;;;;;;;5.47;5.07;;;;;;;19.73;100.00;96737.47;4948392;28;20252;-64
2022/08/05 01:38:44;;;;;;;5.97;5.67;;;;;;;19.67;100.00;96733.06;4913092;28;20388;-66
2022/08/05 01:41:18;;;;;;;5.07;4.77;;;;;;;19.66;100.00;96731.47;4966393;28;20215;-67
2022/08/05 01:43:51;;;;;;;5.20;4.90;;;;;;;19.65;100.00;96732.53;4963338;28;20206;-67
2022/08/05 01:46:20;;;;;;;5.80;4.83;;;;;;;19.65;100.00;96727.16;4968137;28;20222;-66
2022/08/05 01:49:12;;;;;;;5.17;4.77;;;;;;;19.57;100.00;96720.38;4969639;28;20575;-67
2022/08/05 01:51:58;;;;;;;5.30;4.90;;;;;;;19.51;100.00;96732.13;4943699;28;20571;-67
2022/08/05 01:54:32;;;;;;;5.60;5.00;;;;;;;19.50;100.00;96725.94;4915391;28;20551;-65
2022/08/05 02:01:06;;;;;;;5.23;4.93;;;;;;;19.41;100.00;96727.47;4966555;28;20362;-67
2022/08/05 02:03:55;;;;;;;5.53;4.93;;;;;;;19.36;100.00;96722.84;4963439;28;20348;-67
2022/08/05 02:06:33;;;;;;;5.60;5.20;;;;;;;19.35;100.00;96725.78;4946821;28;20273;-66
2022/08/05 02:09:08;;;;;;;5.20;4.90;;;;;;;19.26;100.00;96727.28;4912888;28;20209;-67
2022/08/05 02:11:53;;;;;;;5.77;5.37;;;;;;;19.14;100.00;96722.06;4956023;28;20253;-65
2022/08/05 02:14:37;;;;;;;5.57;5.17;;;;;;;19.16;100.00;96717.25;4963867;28;20618;-64
2022/08/05 02:17:44;;;;;;;5.23;4.83;;;;;;;19.14;100.00;96724.75;4963162;28;20285;-65
2022/08/05 02:20:35;;;;;;;5.27;4.97;;;;;;;19.11;100.00;96720.66;4963052;28;20414;-68
2022/08/05 02:23:12;;;;;;;5.30;5.00;;;;;;;19.15;100.00;96727.16;4944549;28;20232;-68
2022/08/05 02:25:51;;;;;;;5.40;5.07;;;;;;;19.11;100.00;96731.41;4914564;28;20414;-68
2022/08/05 02:28:28;;;;;;;6.00;4.93;;;;;;;19.05;100.00;96721.69;4959667;28;20715;-64
2022/08/05 02:33:58;;;;;;;5.23;4.90;;;;;;;18.98;100.00;96727.22;4963306;28;20209;-67
2022/08/05 02:36:27;;;;;;;5.70;5.27;;;;;;;18.95;100.00;96727.69;4961697;28;20264;-65
2022/08/05 02:39:00;;;;;;;5.77;5.17;;;;;;;18.91;100.00;96731.94;4936630;28;20217;-68
2022/08/05 02:41:29;;;;;;;6.20;5.70;;;;;;;18.99;100.00;96728.06;4910786;28;20293;-66
2022/08/05 02:44:18;;;;;;;5.53;5.13;;;;;;;19.01;100.00;96737.47;4883221;28;20209;-67
2022/08/05 02:46:47;;;;;;;6.03;5.60;;;;;;;18.91;100.00;96732.72;4961004;28;20213;-64
2022/08/05 02:49:31;;;;;;;5.87;5.57;;;;;;;18.91;100.00;96731.94;4947682;28;20205;-67
2022/08/05 02:52:06;;;;;;;6.10;5.70;;;;;;;18.84;100.00;96723.25;4963600;28;20280;-68
2022/08/05 02:54:37;;;;;;;5.83;5.43;;;;;;;18.82;100.00;96723.50;4963589;28;20236;-64
2022/08/05 02:57:11;;;;;;;8.17;6.10;;;;;;;18.82;100.00;96723.50;4963335;28;20320;-64
2022/08/05 02:59:59;;;;;;;5.80;5.50;;;;;;;18.72;100.00;96720.69;4918951;28;20761;-68
2022/08/05 03:02:29;;;;;;;6.03;5.53;;;;;;;18.72;100.00;96724.16;4969636;28;20244;-67
2022/08/05 03:05:00;;;;;;;6.03;5.50;;;;;;;18.74;100.00;96716.69;4943448;28;20387;-68
2022/08/05 03:07:28;;;;;;;5.63;5.30;;;;;;;18.73;100.00;96719.63;4969775;28;20845;-68
2022/08/05 03:10:16;;;;;;;6.20;5.53;;;;;;;18.66;100.00;96712.56;4969926;28;20693;-68
2022/08/05 03:12:52;;;;;;;5.63;5.33;;;;;;;18.68;100.00;96714.19;4968599;28;20601;-67
2022/08/05 03:15:21;;;;;;;5.97;5.47;;;;;;;18.53;100.00;96715.59;4916239;28;20268;-68
2022/08/05 03:17:51;;;;;;;8.00;5.90;;;;;;;18.51;100.00;96717.72;4967029;28;20538;-66
2022/08/05 03:20:24;;;;;;;5.63;5.27;;;;;;;18.49;100.00;96719.81;4943082;28;20214;-66
2022/08/05 03:22:52;;;;;;;5.63;5.23;;;;;;;18.46;100.00;96720.31;4965138;28;20410;-65
2022/08/05 03:25:25;;;;;;;6.70;6.20;;;;;;;18.49;100.00;96712.59;4968785;28;20329;-67
2022/08/05 03:28:13;;;;;;;6.50;6.10;;;;;;;18.47;100.00;96711.22;4970908;28;20706;-67
2022/08/05 03:30:47;;;;;;;6.73;6.17;;;;;;;18.44;100.00;96711.72;4911859;28;20534;-65
2022/08/05 03:33:16;;;;;;;6.97;6.20;;;;;;;18.38;100.00;96716.22;4968928;28;20221;-66
2022/08/05 03:35:47;;;;;;;5.73;5.33;;;;;;;18.34;100.00;96707.81;4946721;28;20673;-66
2022/08/05 03:38:16;;;;;;;6.90;6.07;;;;;;;18.32;100.00;96711.81;4962741;28;20229;-68
2022/08/05 03:41:00;;;;;;;5.97;5.53;;;;;;;18.33;100.00;96716.09;4966962;28;20301;-66
2022/08/05 03:43:38;;;;;;;6.73;6.33;;;;;;;18.29;100.00;96717.66;4948807;28;20643;-65
2022/08/05 03:46:26;;;;;;;6.57;5.97;;;;;;;18.32;100.00;96706.44;4963552;28;20226;-68
2022/08/05 03:48:57;;;;;;;6.90;6.40;;;;;;;18.27;100.00;96703.69;4966953;28;20265;-67
2022/08/05 03:51:30;;;;;;;6.30;5.90;;;;;;;18.31;100.00;96718.22;4948762;28;20248;-68
2022/08/05 03:54:21;;;;;;;6.57;6.13;;;;;;;18.31;100.00;96707.50;4968807;28;20260;-68
2022/08/05 03:57:12;;;;;;;6.53;5.83;;;;;;;18.36;100.00;96708.41;4966214;28;20543;-65
2022/08/05 03:59:51;;;;;;;7.07;6.37;;;;;;;18.38;100.00;96702.81;4902565;28;20217;-65
2022/08/05 04:02:24;;;;;;;10.47;7.07;;;;;;;18.45;100.00;96705.28;4926852;28;20702;-66
2022/08/05 04:05:07;;;;;;;7.20;6.70;;;;;;;18.39;100.00;96704.41;4968421;28;20320;-66
2022/08/05 04:07:39;;;;;;;5.77;5.27;;;;;;;18.32;100.00;96704.59;4942550;28;20319;-68
2022/08/05 04:10:25;;;;;;;7.30;5.50;;;;;;;18.29;100.00;96704.25;4966485;28;20202;-68
2022/08/05 04:12:55;;;;;;;6.67;6.07;;;;;;;18.43;100.00;96708.22;4972660;28;20288;-68
2022/08/05 04:15:26;;;;;;;6.67;6.27;;;;;;;18.47;100.00;96708.53;4913137;28;20237;-68
2022/08/05 04:18:04;;;;;;;5.93;5.63;;;;;;;18.57;100.00;96710.56;4962696;28;20344;-68
2022/08/05 04:20:34;;;;;;;6.80;6.30;;;;;;;18.61;100.00;96706.31;4963567;28;21948;-67
2022/08/05 04:23:03;;;;;;;6.47;5.93;;;;;;;18.71;100.00;96702.97;4943281;28;20236;-69
2022/08/05 04:25:32;;;;;;;6.20;5.83;;;;;;;18.70;100.00;96702.13;4966196;28;20313;-69
2022/08/05 04:28:20;;;;;;;6.40;6.00;;;;;;;18.82;100.00;96706.59;4955550;28;20423;-69
2022/08/05 04:30:58;;;;;;;6.40;6.00;;;;;;;18.95;100.00;96706.22;4932445;28;20603;-65
2022/08/05 04:33:29;;;;;;;7.23;6.63;;;;;;;19.03;100.00;96707.69;4940486;28;20203;-69
2022/08/05 04:36:17;;;;;;;6.30;5.70;;;;;;;19.04;100.00;96702.06;4965775;28;20332;-66
2022/08/05 04:39:06;;;;;;;6.87;6.33;;;;;;;19.02;100.00;96706.06;4938438;28;20367;-68
2022/08/05 04:41:34;;;;;;;6.93;6.47;;;;;;;19.16;100.00;96701.13;4966261;28;20631;-65
2022/08/05 04:44:04;;;;;;;7.30;6.47;;;;;;;19.21;100.00;96702.00;4962002;28;21064;-66
2022/08/05 04:46:36;;;;;;;6.20;5.90;;;;;;;19.28;100.00;96696.44;4966704;28;20208;-66
2022/08/05 04:49:05;;;;;;;6.37;5.97;;;;;;;19.46;100.00;96689.91;4914622;28;20269;-68
2022/08/05 04:51:41;;;;;;;6.80;6.20;;;;;;;19.47;100.00;96696.06;4934553;28;20214;-68
2022/08/05 04:54:13;;;;;;;6.50;6.10;;;;;;;19.63;100.00;96686.28;4966474;28;20295;-66
2022/08/05 04:56:41;;;;;;;7.77;5.80;;;;;;;19.75;100.00;96700.38;4964459;28;20285;-66
2022/08/05 04:59:10;;;;;;;6.53;5.90;;;;;;;19.83;100.00;96691.03;4968854;28;20232;-66
2022/08/05 05:01:52;;;;;;;7.40;6.67;;;;;;;20.03;100.00;96703.06;4970031;28;20239;-66
2022/08/05 05:04:40;;;;;;;6.30;5.90;;;;;;;20.18;100.00;96699.69;4916795;28;20335;-67
2022/08/05 05:07:17;;;;;;;6.37;5.77;;;;;;;20.27;100.00;96705.38;4963393;28;20798;-67
2022/08/05 05:09:57;;;;;;;6.43;6.03;;;;;;;20.38;100.00;96685.56;4969699;28;20233;-66
2022/08/05 05:12:29;;;;;;;6.20;5.80;;;;;;;20.58;100.00;96695.63;4961586;28;20335;-67
2022/08/05 05:14:57;;;;;;;5.97;5.63;;;;;;;20.74;100.00;96698.41;4964025;28;20229;-67
2022/08/05 05:17:25;;;;;;;6.97;6.50;;;;;;;20.91;100.00;96700.94;4963900;28;20881;-64
2022/08/05 05:20:14;;;;;;;5.53;5.20;;;;;;;21.14;100.00;96712.34;4952349;28;20216;-66
2022/08/05 05:22:47;;;;;;;5.83;5.50;;;;;;;21.39;100.00;96720.50;4950329;28;20328;-67
2022/08/05 05:25:16;;;;;;;5.60;5.20;;;;;;;21.63;100.00;96722.72;4962765;28;20276;-66
2022/08/05 05:27:45;;;;;;;6.90;6.20;;;;;;;21.74;100.00;96720.88;4967091;28;20501;-68
2022/08/05 05:30:23;;;;;;;7.20;6.60;;;;;;;21.92;100.00;96727.63;4966389;28;20237;-67
2022/08/05 05:32:57;;;;;;;8.03;6.17;;;;;;;22.07;100.00;96715.22;4968304;28;20232;-70
2022/08/05 05:35:30;;;;;;;6.37;5.80;;;;;;;22.12;100.00;96720.63;4911157;28;20845;-68
2022/08/05 05:38:05;;;;;;;6.30;5.90;;;;;;;22.31;100.00;96733.56;4968119;28;20231;-67
2022/08/05 05:40:41;;;;;;;7.03;5.43;;;;;;;22.53;100.00;96744.09;4963113;28;20478;-68
2022/08/05 05:43:18;;;;;;;5.37;5.07;;;;;;;22.46;100.00;96759.78;4966381;28;20210;-67
2022/08/05 05:46:06;;;;;;;5.47;5.07;;;;;;;22.46;100.00;96784.84;4964728;28;20320;-69
2022/08/05 05:48:43;;;;;;;9.37;6.00;;;;;;;22.11;100.00;96781.88;4963442;28;20407;-68
2022/08/05 05:51:19;;;;;;;6.27;5.87;;;;;;;22.06;100.00;96772.94;4953959;28;20234;-64
2022/08/05 05:53:47;;;;;;;5.87;5.40;;;;;;;22.14;100.00;96794.00;4951209;28;21137;-69
2022/08/05 05:56:28;;;;;;;7.27;6.57;;;;;;;22.09;100.00;96786.72;4938556;28;20229;-64
2022/08/05 05:59:02;;;;;;;7.10;6.20;;;;;;;21.94;100.00;96792.06;4962801;28;20255;-65
2022/08/05 06:01:33;;;;;;;6.53;5.97;;;;;;;22.32;100.00;96799.94;4964385;28;20292;-68
2022/08/05 06:04:07;;;;;;;6.33;5.40;;;;;;;22.46;100.00;96790.25;4964736;28;20207;-66
2022/08/05 06:06:39;;;;;;;6.93;5.43;;;;;;;22.58;100.00;96781.09;4922576;28;22295;-68
2022/08/05 06:09:08;;;;;;;6.80;6.10;;;;;;;22.77;100.00;96778.63;4963420;28;20216;-66
2022/08/05 06:11:54;;;;;;;5.37;4.97;;;;;;;22.97;100.00;96791.28;4967230;28;20201;-67
2022/08/05 06:14:29;;;;;;;5.20;4.80;;;;;;;22.90;100.00;96801.53;4961790;28;20245;-68
2022/08/05 06:16:57;;;;;;;5.30;5.00;;;;;;;22.83;100.00;96764.03;4968401;28;20202;-68
2022/08/05 06:19:25;;;;;;;8.53;5.47;;;;;;;22.87;100.00;96758.88;4968048;28;20225;-67
2022/08/05 06:22:02;;;;;;;5.57;5.07;;;;;;;23.00;100.00;96777.22;4925972;28;20209;-69
2022/08/05 06:24:30;;;;;;;5.90;5.50;;;;;;;23.15;100.00;96764.75;4955205;28;20427;-69
2022/08/05 06:27:00;;;;;;;5.93;5.27;;;;;;;23.40;100.00;96753.03;4965855;28;20297;-68
2022/08/05 06:29:30;;;;;;;5.70;5.20;;;;;;;23.76;100.00;96760.16;4961839;28;20462;-68
2022/08/05 06:32:18;;;;;;;5.40;5.00;;;;;;;23.91;100.00;96753.84;4965514;28;20206;-66
2022/08/05 06:34:53;;;;;;;6.20;5.60;;;;;;;24.07;99.77;96730.22;4941570;28;20236;-66
2022/08/05 06:37:24;;;;;;;6.03;5.50;;;;;;;23.86;100.00;96719.53;4919731;28;20413;-67
2022/08/05 06:40:12;;;;;;;5.33;4.90;;;;;;;24.01;100.00;96724.03;4962055;28;20367;-66
2022/08/05 06:42:49;;;;;;;6.03;5.30;;;;;;;23.99;99.57;96713.44;4965723;28;20614;-68
2022/08/05 06:45:19;;;;;;;5.10;4.80;;;;;;;24.13;99.94;96712.84;4960817;28;20477;-66
2022/08/05 06:48:08;;;;;;;5.77;5.10;;;;;;;24.45;97.26;96726.91;4966270;28;20750;-67
2022/08/05 06:50:56;;;;;;;5.10;4.67;;;;;;;24.70;94.27;96706.88;4969780;28;20612;-66
2022/08/05 06:53:24;;;;;;;5.50;5.10;;;;;;;25.02;95.00;96716.31;4916496;28;20213;-68
2022/08/05 06:55:56;;;;;;;5.10;4.80;;;;;;;24.93;93.21;96718.06;4967438;28;20321;-68
2022/08/05 06:58:25;;;;;;;4.67;4.47;;;;;;;24.82;96.60;96712.75;4908824;28;20312;-66
2022/08/05 07:01:05;;;;;;;5.40;5.00;;;;;;;24.97;97.06;96721.81;4952874;28;20213;-66
2022/08/05 07:03:33;;;;;;;5.13;4.73;;;;;;;25.37;94.65;96724.28;4963042;28;20213;-65
2022/08/05 07:06:03;;;;;;;6.07;4.70;;;;;;;25.86;85.23;96728.50;4964977;28;20307;-67
2022/08/05 07:08:40;;;;;;;5.67;5.17;;;;;;;26.37;83.80;96733.44;4944393;28;20605;-69
2022/08/05 07:11:09;;;;;;;5.40;4.97;;;;;;;26.69;81.37;96724.44;4970737;28;20297;-67
2022/08/05 07:19:36;;;;;;;6.07;5.17;;;;;;;27.90;65.01;96770.72;4963309;28;20230;-66
2022/08/05 07:22:24;;;;;;;4.77;4.37;;;;;;;28.13;65.35;96781.59;4945302;28;20208;-65
2022/08/05 07:24:58;;;;;;;4.90;4.50;;;;;;;28.18;62.84;96762.44;4966706;28;20585;-65
2022/08/05 07:27:46;;;;;;;5.47;4.97;;;;;;;28.08;65.17;96773.56;4916591;28;21077;-67
2022/08/05 07:30:33;;;;;;;5.77;5.27;;;;;;;27.90;69.39;96789.78;4963503;28;20354;-67
2022/08/05 07:33:07;;;;;;;5.87;4.37;;;;;;;28.03;65.31;96798.97;4968842;28;20207;-68
2022/08/05 07:35:42;;;;;;;4.83;4.50;;;;;;;27.85;66.45;96804.28;4962747;28;20272;-67
2022/08/05 07:38:30;;;;;;;4.73;4.43;;;;;;;27.88;73.20;96806.41;4947181;28;20216;-66
2022/08/05 07:41:11;;;;;;;5.63;5.13;;;;;;;27.55;68.54;96809.28;4966087;28;20595;-66
2022/08/05 07:44:00;;;;;;;5.30;5.00;;;;;;;27.66;67.40;96800.91;4917354;28;20215;-68
2022/08/05 07:46:30;;;;;;;7.03;5.03;;;;;;;27.82;68.56;96799.47;4962533;28;20645;-66
2022/08/05 07:49:01;;;;;;;5.50;5.00;;;;;;;28.20;67.47;96792.91;4968049;28;20198;-67
2022/08/05 07:51:34;;;;;;;4.87;4.40;;;;;;;28.31;63.04;96801.63;4972245;28;20590;-65
2022/08/05 07:54:15;;;;;;;7.83;4.97;;;;;;;28.43;64.79;96798.38;4952837;28;20317;-68
2022/08/05 07:56:45;;;;;;;4.70;4.40;;;;;;;28.70;62.60;96810.25;4964323;28;20390;-67
2022/08/05 07:59:34;;;;;;;7.83;4.80;;;;;;;28.84;61.78;96810.19;4929411;28;20315;-65
2022/08/05 08:02:09;;;;;;;5.53;5.07;;;;;;;28.72;61.55;96813.47;4966843;28;20240;-68
2022/08/05 08:04:48;;;;;;;6.70;5.10;;;;;;;28.51;60.85;96824.06;4968360;28;20450;-65
2022/08/05 08:07:17;;;;;;;5.47;5.00;;;;;;;28.28;63.05;96822.16;4967915;28;20270;-68
2022/08/05 08:09:50;;;;;;;5.23;4.60;;;;;;;27.91;65.01;96823.22;4948355;28;20486;-67
2022/08/05 08:12:22;;;;;;;5.83;4.90;;;;;;;27.70;71.66;96810.88;4968850;28;20211;-66
2022/08/05 08:15:08;;;;;;;5.93;5.37;;;;;;;27.63;68.10;96813.19;4926022;28;20403;-67
2022/08/05 08:17:44;;;;;;;5.00;4.50;;;;;;;27.68;69.06;96815.03;4961991;28;20229;-68
2022/08/05 08:20:20;;;;;;;6.73;5.00;;;;;;;28.09;68.60;96821.47;4967493;28;20772;-66
2022/08/05 08:23:08;;;;;;;5.83;5.33;;;;;;;28.33;64.06;96820.41;4969239;28;20217;-68
2022/08/05 08:25:56;;;;;;;5.43;4.90;;;;;;;28.50;63.55;96815.06;4946948;28;20415;-67
2022/08/05 08:28:29;;;;;;;7.03;5.00;;;;;;;28.64;60.33;96811.50;4966722;28;20213;-65
2022/08/05 08:31:04;;;;;;;5.13;4.70;;;;;;;28.71;54.08;96828.19;4920171;28;20235;-68
2022/08/05 08:33:34;;;;;;;5.10;4.60;;;;;;;28.70;52.63;96823.88;4964171;28;20296;-66
2022/08/05 08:36:06;;;;;;;5.10;4.20;;;;;;;28.99;53.43;96834.31;4944706;28;20238;-67
2022/08/05 08:38:54;;;;;;;4.43;4.13;;;;;;;29.23;50.67;96838.59;4967990;28;20241;-68
2022/08/05 08:41:25;;;;;;;6.77;4.47;;;;;;;29.14;47.07;96835.00;4950937;28;20214;-66
2022/08/05 08:44:14;;;;;;;6.13;4.50;;;;;;;28.95;43.94;96846.97;4963420;28;20612;-65
2022/08/05 08:47:03;;;;;;;5.17;4.13;;;;;;;28.89;43.92;96856.41;4920355;28;20294;-66
2022/08/05 08:49:55;;;;;;;4.33;4.03;;;;;;;28.81;44.22;96862.59;4969659;28;20268;-67
2022/08/05 08:52:46;;;;;;;4.47;4.17;;;;;;;28.60;44.80;96871.25;4970009;28;20404;-68
2022/08/05 08:55:20;;;;;;;4.13;3.93;;;;;;;28.44;45.98;96871.63;4966879;28;20236;-66
2022/08/05 08:58:09;;;;;;;5.43;3.90;;;;;;;28.39;46.58;96881.81;4949808;28;20218;-65
2022/08/05 09:00:41;;;;;;;4.57;4.17;;;;;;;28.51;48.02;96873.91;4965295;28;20445;-66
2022/08/05 09:03:10;;;;;;;4.63;4.23;;;;;;;28.67;47.43;96870.81;4919335;28;20308;-65
2022/08/05 09:05:44;;;;;;;4.57;4.37;;;;;;;28.52;46.79;96863.81;4900091;28;20237;-68
2022/08/05 09:08:32;;;;;;;4.97;4.53;;;;;;;28.75;46.65;96870.84;4965361;28;20210;-65
2022/08/05 09:11:01;;;;;;;5.53;4.70;;;;;;;28.68;47.03;96877.88;4959098;28;20287;-65
2022/08/05 09:13:30;;;;;;;6.30;4.13;;;;;;;28.94;46.23;96882.72;4966582;28;20214;-67
2022/08/05 09:16:18;;;;;;;4.60;4.20;;;;;;;29.22;47.82;96886.09;4969981;28;20222;-68
2022/08/05 09:18:47;;;;;;;5.00;4.50;;;;;;;29.15;45.62;96891.16;4968706;28;20234;-67
2022/08/05 09:21:17;;;;;;;6.60;4.37;;;;;;;29.16;44.89;96877.22;4915833;28;20325;-66
2022/08/05 09:24:07;;;;;;;4.87;4.43;;;;;;;29.28;43.98;96878.56;4962604;28;20216;-65
2022/08/05 09:26:37;;;;;;;5.43;4.73;;;;;;;29.30;44.21;96879.88;4952618;28;20217;-66
2022/08/05 09:29:10;;;;;;;4.63;4.23;;;;;;;29.49;43.50;96883.50;4962102;28;20808;-66
2022/08/05 09:32:01;;;;;;;12.63;4.93;;;;;;;30.09;42.22;96893.00;4966678;28;20206;-69
2022/08/05 09:34:50;;;;;;;4.33;4.00;;;;;;;30.29;41.36;96874.38;4968527;28;20352;-65
2022/08/05 09:37:22;;;;;;;4.60;4.20;;;;;;;30.30;40.58;96879.53;4916035;28;21110;-68
2022/08/05 09:40:29;;;;;;;5.70;4.13;;;;;;;30.34;40.56;96893.34;4961772;28;20901;-65
2022/08/05 09:42:59;;;;;;;4.03;3.83;;;;;;;30.36;40.30;96877.44;4947252;28;20213;-66
2022/08/05 09:45:36;;;;;;;5.37;3.83;;;;;;;30.02;40.02;96901.66;4967262;28;20694;-68
2022/08/05 09:48:25;;;;;;;4.37;3.83;;;;;;;29.97;39.60;96890.84;4964895;28;20492;-66
2022/08/05 09:51:07;;;;;;;3.73;3.23;;;;;;;29.98;39.63;96884.28;4948361;28;20241;-65
2022/08/05 09:53:51;;;;;;;3.70;3.40;;;;;;;29.78;39.04;96902.06;4965488;28;20305;-68
2022/08/05 09:56:25;;;;;;;3.57;3.37;;;;;;;29.53;39.07;96898.13;4927113;28;20225;-65
2022/08/05 09:58:58;;;;;;;3.50;3.20;;;;;;;29.76;39.33;96893.38;4953686;28;20237;-68
2022/08/05 10:01:27;;;;;;;6.37;4.40;;;;;;;29.80;39.00;96896.28;4963828;28;20952;-64
2022/08/05 10:04:03;;;;;;;4.97;3.57;;;;;;;29.68;39.80;96892.22;4952203;28;20730;-67
2022/08/05 10:06:39;;;;;;;4.87;3.37;;;;;;;29.54;40.89;96894.28;4924662;28;21772;-67
2022/08/05 10:09:14;;;;;;;4.37;4.13;;;;;;;29.51;40.91;96886.72;4963981;28;20784;-64
2022/08/05 10:11:55;;;;;;;5.37;4.10;;;;;;;29.54;41.15;96886.88;4953221;28;20217;-67
2022/08/05 10:14:28;;;;;;;4.17;3.83;;;;;;;29.63;41.48;96889.63;4951728;28;20340;-62
2022/08/05 10:17:16;;;;;;;5.17;3.90;;;;;;;29.71;41.37;96891.59;4963658;28;20202;-66
2022/08/05 10:20:05;;;;;;;3.80;3.50;;;;;;;29.83;40.46;96893.72;4966063;28;20324;-65
2022/08/05 10:22:39;;;;;;;5.97;3.50;;;;;;;29.65;40.00;96889.34;4929388;28;20913;-67
2022/08/05 10:26:07;;;;;;;4.90;3.00;;;;;;;29.84;40.27;96894.53;4930233;28;20303;-64
2022/08/05 10:28:43;;;;;;;3.93;3.33;;;;;;;29.57;40.38;96890.91;4946993;28;20917;-63
2022/08/05 10:31:14;;;;;;;3.60;3.37;;;;;;;29.62;40.76;96898.94;4963915;28;20206;-63
2022/08/05 10:34:03;;;;;;;5.67;3.23;;;;;;;29.72;41.55;96904.13;4944168;28;20942;-62
2022/08/05 10:36:35;;;;;;;3.60;3.30;;;;;;;29.75;40.53;96900.78;4966286;28;20209;-63
2022/08/05 10:39:06;;;;;;;4.57;3.20;;;;;;;29.85;40.07;96901.59;4930264;28;20209;-62
2022/08/05 10:41:57;;;;;;;3.77;3.47;;;;;;;30.23;39.16;96906.53;4942293;28;20228;-65
2022/08/05 10:44:32;;;;;;;3.60;3.20;;;;;;;30.38;38.94;96901.69;4942169;28;20241;-64
2022/08/05 10:47:10;;;;;;;3.43;3.00;;;;;;;30.65;37.70;96903.31;4961553;28;20206;-65
2022/08/05 10:50:01;;;;;;;4.30;3.13;;;;;;;30.29;37.39;96897.03;4943482;28;20244;-64
2022/08/05 10:52:56;;;;;;;3.10;2.77;;;;;;;30.24;37.12;96907.31;4976518;28;20256;-63
2022/08/05 10:55:26;;;;;;;3.50;3.03;;;;;;;30.36;37.13;96914.88;4918518;28;20372;-62
2022/08/05 10:58:08;;;;;;;3.20;3.00;;;;;;;30.61;37.04;96905.09;4982802;28;20244;-64
2022/08/05 11:00:46;;;;;;;5.03;3.30;;;;;;;30.54;37.87;96908.31;4966883;28;20228;-63
2022/08/05 11:03:14;;;;;;;2.93;2.73;;;;;;;30.43;37.44;96907.00;4984131;28;20216;-64
2022/08/05 11:06:10;;;;;;;3.07;2.80;;;;;;;30.39;37.88;96903.31;4962547;28;20240;-62
2022/08/05 11:09:20;;;;;;;3.00;2.70;;;;;;;30.54;37.80;96899.28;4986493;28;20213;-62
2022/08/05 11:12:43;;;;;;;2.80;2.60;;;;;;;30.65;38.46;96886.13;4925683;28;20315;-66
2022/08/05 11:15:20;;;;;;;3.40;2.90;;;;;;;30.69;37.81;96889.84;4984040;28;20224;-66
2022/08/05 11:17:52;;;;;;;2.90;2.70;;;;;;;30.64;38.24;96890.00;4955887;28;20212;-66
2022/08/05 11:20:41;;;;;;;3.47;3.27;;;;;;;30.70;38.67;96886.78;4987232;28;20234;-64
2022/08/05 11:23:31;;;;;;;2.83;2.73;;;;;;;30.72;37.13;96892.72;4961465;28;21150;-66
2022/08/05 11:26:26;;;;;;;12.57;3.20;;;;;;;30.83;37.53;96895.91;4932959;28;20228;-64
2022/08/05 11:29:10;;;;;;;4.13;3.00;;;;;;;30.96;36.83;96905.06;4987359;28;20204;-65
2022/08/05 11:32:24;;;;;;;3.83;3.27;;;;;;;30.93;36.81;96875.63;4988258;28;20581;-64
2022/08/05 11:34:54;;;;;;;4.07;2.90;;;;;;;31.12;36.71;96897.16;4956971;28;20229;-67
2022/08/05 11:38:06;;;;;;;3.47;3.20;;;;;;;31.15;36.98;96892.97;4962887;28;21096;-65
2022/08/05 11:41:01;;;;;;;2.80;2.63;;;;;;;31.48;36.18;96882.25;4990095;28;20319;-65
2022/08/05 11:43:57;;;;;;;2.70;2.50;;;;;;;31.74;35.80;96884.06;4980638;28;20212;-65
2022/08/05 11:46:36;;;;;;;3.30;3.10;;;;;;;31.78;36.45;96886.94;4961118;28;21044;-65
2022/08/05 11:49:24;;;;;;;2.90;2.70;;;;;;;31.78;35.45;96891.63;4968017;28;20264;-64
2022/08/05 11:51:54;;;;;;;3.30;3.07;;;;;;;31.74;36.28;96881.31;4988435;28;20205;-64
2022/08/05 11:54:26;;;;;;;3.00;2.80;;;;;;;31.88;35.53;96877.56;4966697;28;20313;-65
2022/08/05 11:57:02;;;;;;;4.37;2.90;;;;;;;32.07;35.48;96879.06;4953613;28;20213;-64
2022/08/05 11:59:50;;;;;;;3.20;2.90;;;;;;;31.87;35.29;96881.44;4988985;28;20198;-65
2022/08/05 12:02:25;;;;;;;2.93;2.73;;;;;;;31.88;36.42;96872.91;4982575;28;20241;-64
2022/08/05 12:05:00;;;;;;;4.53;3.10;;;;;;;31.67;35.94;96877.50;4971094;28;20286;-64
2022/08/05 12:07:38;;;;;;;3.23;3.00;;;;;;;31.68;34.98;96868.97;4985735;28;20193;-64
2022/08/05 12:10:27;;;;;;;5.67;2.97;;;;;;;31.97;36.42;96863.81;4936114;28;20355;-65
2022/08/05 12:13:17;;;;;;;2.97;2.77;;;;;;;32.21;35.77;96863.16;4954798;28;20240;-64
2022/08/05 12:16:07;;;;;;;3.67;3.40;;;;;;;32.30;34.67;96860.34;4985122;28;20306;-65
2022/08/05 12:18:43;;;;;;;2.90;2.60;;;;;;;32.42;34.47;96854.16;4971597;28;20216;-67
2022/08/05 12:21:22;;;;;;;2.73;2.53;;;;;;;32.57;34.17;96863.69;4968450;28;21487;-66
2022/08/05 12:24:02;;;;;;;3.07;2.87;;;;;;;32.74;33.61;96859.97;4990417;28;20209;-67
2022/08/05 12:26:33;;;;;;;3.00;2.80;;;;;;;32.93;33.76;96854.00;4957918;28;20979;-67
2022/08/05 12:29:01;;;;;;;2.73;2.63;;;;;;;32.66;33.55;96849.91;4948377;28;20343;-65
2022/08/05 12:31:32;;;;;;;3.30;3.10;;;;;;;32.81;32.88;96853.94;4964067;28;20205;-66
2022/08/05 12:34:16;;;;;;;2.80;2.23;;;;;;;33.39;34.96;96853.19;4971565;28;20205;-62